createdAt,value
2022-10-29T00:00:10.291Z,100413.42
2022-10-29T00:03:02.453Z,100411.73
2022-10-29T00:05:59.340Z,100414.83
2022-10-29T00:08:33.137Z,100415.06
2022-10-29T00:11:20.932Z,100418.31
2022-10-29T00:13:55.951Z,100418.04
2022-10-29T00:16:30.275Z,100422.57
2022-10-29T00:19:02.948Z,100421.39
2022-10-29T00:21:33.844Z,100422.62
2022-10-29T00:24:05.369Z,100423.02
2022-10-29T00:26:36.679Z,100418.06
2022-10-29T00:29:05.908Z,100419.83
2022-10-29T00:31:56.123Z,100419.05
2022-10-29T00:34:26.703Z,100415.90
2022-10-29T00:36:58.787Z,100411.78
2022-10-29T00:39:30.231Z,100413.95
2022-10-29T00:42:01.001Z,100426.36
2022-10-29T00:44:36.139Z,100423.19
2022-10-29T00:47:20.195Z,100420.34
2022-10-29T00:49:54.977Z,100418.77
2022-10-29T00:52:30.158Z,100421.77
2022-10-29T00:55:07.031Z,100419.52
2022-10-29T00:57:45.304Z,100418.75
2022-10-29T01:00:19.828Z,100410.74
2022-10-29T01:02:56.731Z,100406.19
2022-10-29T01:06:01.183Z,100402.98
2022-10-29T01:08:30.630Z,100399.23
2022-10-29T01:11:26.660Z,100394.42
2022-10-29T01:14:24.997Z,100386.85
2022-10-29T01:17:06.265Z,100385.20
2022-10-29T01:20:14.429Z,100382.73
2022-10-29T01:23:12.615Z,100379.34
2022-10-29T01:26:14.066Z,100370.40
2022-10-29T01:28:49.360Z,100359.48
2022-10-29T01:31:26.736Z,100365.95
2022-10-29T01:34:13.298Z,100367.67
2022-10-29T01:36:51.717Z,100358.02
2022-10-29T01:39:29.206Z,100351.09
2022-10-29T01:42:02.701Z,100350.21
2022-10-29T01:45:21.860Z,100349.16
2022-10-29T01:48:02.538Z,100345.42
2022-10-29T01:50:36.179Z,100342.48
2022-10-29T01:53:07.597Z,100338.32
2022-10-29T01:55:39.903Z,100348.81
2022-10-29T01:58:12.698Z,100338.66
2022-10-29T02:00:50.925Z,100329.73
2022-10-29T02:03:36.894Z,100327.46
2022-10-29T02:06:21.404Z,100325.97
2022-10-29T02:09:07.081Z,100325.58
2022-10-29T02:11:36.216Z,100324.23
2022-10-29T02:14:17.094Z,100326.09
2022-10-29T02:16:47.156Z,100324.39
2022-10-29T02:19:22.803Z,100318.41
2022-10-29T02:21:53.441Z,100316.91
2022-10-29T02:24:25.502Z,100313.89
2022-10-29T02:27:02.634Z,100317.02
2022-10-29T02:29:34.193Z,100316.54
2022-10-29T02:32:03.540Z,100314.98
2022-10-29T02:34:34.619Z,100312.46
2022-10-29T02:37:07.459Z,100307.91
2022-10-29T02:39:38.195Z,100307.64
2022-10-29T02:42:07.811Z,100310.33
2022-10-29T02:44:38.237Z,100307.12
2022-10-29T02:47:07.888Z,100311.63
2022-10-29T02:49:39.593Z,100307.13
2022-10-29T02:52:13.046Z,100317.81
2022-10-29T02:54:43.377Z,100321.65
2022-10-29T02:57:17.120Z,100317.00
2022-10-29T02:59:55.782Z,100313.99
2022-10-29T03:02:31.749Z,100310.09
2022-10-29T03:09:30.273Z,100306.27
2022-10-29T03:12:02.231Z,100314.10
2022-10-29T03:14:35.571Z,100309.30
2022-10-29T03:17:09.440Z,100305.23
2022-10-29T03:19:39.241Z,100306.35
2022-10-29T03:22:08.694Z,100312.74
2022-10-29T03:24:41.312Z,100309.46
2022-10-29T03:27:18.328Z,100302.06
2022-10-29T03:29:50.844Z,100296.27
2022-10-29T03:32:20.570Z,100314.46
2022-10-29T03:34:53.622Z,100319.67
2022-10-29T03:37:29.561Z,100316.29
2022-10-29T03:40:05.461Z,100315.65
2022-10-29T03:42:34.391Z,100313.17
2022-10-29T03:45:05.698Z,100310.28
2022-10-29T03:47:35.753Z,100315.94
2022-10-29T03:50:09.803Z,100318.77
2022-10-29T03:52:42.473Z,100316.90
2022-10-29T03:55:15.161Z,100320.04
2022-10-29T03:57:44.759Z,100313.61
2022-10-29T04:00:20.770Z,100313.84
2022-10-29T04:02:51.498Z,100313.08
2022-10-29T04:06:36.807Z,100311.84
2022-10-29T04:09:13.111Z,100320.64
2022-10-29T04:11:43.786Z,100321.23
2022-10-29T04:14:18.085Z,100327.91
2022-10-29T04:16:55.008Z,100330.73
2022-10-29T04:28:44.872Z,100313.75
2022-10-29T04:31:18.230Z,100311.93
2022-10-29T04:33:51.109Z,100313.70
2022-10-29T04:36:20.058Z,100310.75
2022-10-29T04:38:52.760Z,100308.39
2022-10-29T04:41:28.754Z,100309.69
2022-10-29T04:44:00.973Z,100312.60
2022-10-29T04:46:32.445Z,100313.66
2022-10-29T04:49:01.510Z,100323.13
2022-10-29T04:51:32.193Z,100321.63
2022-10-29T04:54:03.730Z,100316.21
2022-10-29T04:56:33.145Z,100310.77
2022-10-29T04:59:04.176Z,100312.58
2022-10-29T05:04:06.909Z,100311.18
2022-10-29T05:06:40.836Z,100308.98
2022-10-29T05:09:11.430Z,100316.33
2022-10-29T05:11:42.573Z,100315.58
2022-10-29T05:14:12.538Z,100313.87
2022-10-29T05:16:43.421Z,100310.96
2022-10-29T05:19:13.891Z,100311.11
2022-10-29T05:21:46.460Z,100314.18
2022-10-29T05:25:09.791Z,100326.61
2022-10-29T05:27:41.009Z,100339.59
2022-10-29T05:30:11.173Z,100336.26
2022-10-29T05:32:43.181Z,100335.84
2022-10-29T05:35:12.619Z,100338.09
2022-10-29T05:37:43.530Z,100336.70
2022-10-29T05:40:14.102Z,100343.85
2022-10-29T05:42:47.395Z,100348.92
2022-10-29T05:45:20.946Z,100341.14
2022-10-29T05:47:58.437Z,100332.52
2022-10-29T05:50:30.648Z,100329.52
2022-10-29T05:53:06.439Z,100337.66
2022-10-29T05:55:37.379Z,100336.95
2022-10-29T05:58:13.981Z,100335.01
2022-10-29T06:00:46.868Z,100331.49
2022-10-29T06:03:20.141Z,100330.80
2022-10-29T06:10:15.126Z,100337.39
2022-10-29T06:12:44.535Z,100337.15
2022-10-29T06:15:15.615Z,100334.30
2022-10-29T06:17:46.668Z,100335.25
2022-10-29T06:20:19.248Z,100338.20
2022-10-29T06:22:48.745Z,100340.30
2022-10-29T06:25:22.747Z,100335.77
2022-10-29T06:28:09.152Z,100337.21
2022-10-29T06:30:39.207Z,100340.89
2022-10-29T06:33:08.468Z,100342.42
2022-10-29T06:35:38.789Z,100329.10
2022-10-29T06:38:11.117Z,100333.55
2022-10-29T06:40:42.999Z,100334.63
2022-10-29T06:43:16.986Z,100340.37
2022-10-29T06:45:46.204Z,100340.88
2022-10-29T06:48:21.762Z,100336.08
2022-10-29T06:50:55.512Z,100338.48
2022-10-29T06:53:34.106Z,100334.42
2022-10-29T06:56:05.602Z,100336.57
2022-10-29T06:58:35.780Z,100342.41
2022-10-29T07:01:04.747Z,100348.73
2022-10-29T07:03:36.879Z,100354.32
2022-10-29T07:06:34.710Z,100360.73
2022-10-29T07:09:08.939Z,100362.60
2022-10-29T07:11:42.449Z,100371.60
2022-10-29T07:14:15.263Z,100381.92
2022-10-29T07:17:06.895Z,100381.77
2022-10-29T07:19:36.373Z,100388.33
2022-10-29T07:22:06.692Z,100391.64
2022-10-29T07:24:36.670Z,100396.41
2022-10-29T07:27:13.432Z,100402.88
2022-10-29T07:29:45.448Z,100403.35
2022-10-29T07:32:16.201Z,100405.45
2022-10-29T07:34:51.037Z,100399.54
2022-10-29T07:37:20.561Z,100399.16
2022-10-29T07:39:55.794Z,100387.83
2022-10-29T07:42:29.996Z,100383.35
2022-10-29T07:44:59.483Z,100383.27
2022-10-29T07:47:30.360Z,100384.20
2022-10-29T07:49:59.863Z,100380.35
2022-10-29T07:52:33.201Z,100382.95
2022-10-29T07:55:06.401Z,100381.34
2022-10-29T07:57:38.089Z,100387.61
2022-10-29T08:00:18.492Z,100385.09
2022-10-29T08:02:53.941Z,100386.34
2022-10-29T08:06:16.064Z,100381.93
2022-10-29T08:08:46.592Z,100373.18
2022-10-29T08:11:17.003Z,100376.70
2022-10-29T08:13:51.467Z,100376.56
2022-10-29T08:16:23.990Z,100379.23
2022-10-29T08:18:54.980Z,100382.80
2022-10-29T08:21:26.331Z,100387.62
2022-10-29T08:23:56.944Z,100387.64
2022-10-29T08:26:27.551Z,100382.59
2022-10-29T08:28:58.145Z,100380.71
2022-10-29T08:31:28.309Z,100378.42
2022-10-29T08:33:59.232Z,100377.81
2022-10-29T08:36:32.125Z,100383.09
2022-10-29T08:39:02.215Z,100386.13
2022-10-29T08:41:50.911Z,100391.59
2022-10-29T08:44:39.412Z,100395.35
2022-10-29T08:47:16.138Z,100394.80
2022-10-29T08:50:16.138Z,100389.61
2022-10-29T08:52:53.368Z,100386.52
2022-10-29T08:55:41.566Z,100399.80
2022-10-29T08:58:34.589Z,100402.45
2022-10-29T09:01:12.154Z,100405.96
2022-10-29T09:03:44.414Z,100406.06
2022-10-29T09:10:52.323Z,100413.48
2022-10-29T09:13:46.664Z,100417.10
2022-10-29T09:17:02.254Z,100417.67
2022-10-29T09:20:01.342Z,100425.90
2022-10-29T09:23:10.424Z,100424.98
2022-10-29T09:25:54.514Z,100429.16
2022-10-29T09:29:04.925Z,100434.89
2022-10-29T09:31:47.695Z,100436.16
2022-10-29T09:34:46.856Z,100443.97
2022-10-29T09:37:51.098Z,100442.38
2022-10-29T09:40:42.395Z,100447.58
2022-10-29T09:43:34.518Z,100444.02
2022-10-29T09:46:45.485Z,100444.97
2022-10-29T09:49:26.573Z,100441.67
2022-10-29T09:52:02.513Z,100427.96
2022-10-29T09:54:34.260Z,100428.86
2022-10-29T09:57:06.398Z,100433.65
2022-10-29T09:59:43.079Z,100433.92
2022-10-29T10:02:30.794Z,100439.29
2022-10-29T10:05:15.328Z,100435.05
2022-10-29T10:08:03.853Z,100434.38
2022-10-29T10:10:37.117Z,100434.95
2022-10-29T10:13:17.231Z,100435.52
2022-10-29T10:16:02.867Z,100429.45
2022-10-29T10:18:33.260Z,100436.69
2022-10-29T10:21:11.660Z,100429.45
2022-10-29T10:23:44.884Z,100423.99
2022-10-29T10:26:29.164Z,100427.77
2022-10-29T10:29:15.083Z,100427.54
2022-10-29T10:31:49.638Z,100423.36
2022-10-29T10:34:21.581Z,100418.48
2022-10-29T10:37:06.222Z,100418.11
2022-10-29T10:39:49.089Z,100433.11
2022-10-29T10:42:24.046Z,100434.23
2022-10-29T10:45:05.950Z,100442.02
2022-10-29T10:47:37.599Z,100437.77
2022-10-29T10:50:34.489Z,100441.58
2022-10-29T10:53:18.300Z,100439.80
2022-10-29T10:55:53.434Z,100435.61
2022-10-29T10:59:06.652Z,100440.41
2022-10-29T11:01:43.399Z,100440.23
2022-10-29T11:04:16.705Z,100437.38
2022-10-29T11:06:52.418Z,100442.32
2022-10-29T11:09:34.234Z,100456.36
2022-10-29T11:12:16.181Z,100451.20
2022-10-29T11:14:54.782Z,100446.71
2022-10-29T11:17:32.563Z,100451.32
2022-10-29T11:20:08.825Z,100434.78
2022-10-29T11:23:02.953Z,100440.83
2022-10-29T11:25:56.543Z,100439.73
2022-10-29T11:28:25.785Z,100433.35
2022-10-29T11:31:11.119Z,100435.52
2022-10-29T11:33:51.067Z,100432.98
2022-10-29T11:36:24.602Z,100441.83
2022-10-29T11:39:06.883Z,100439.86
2022-10-29T11:41:42.123Z,100442.55
2022-10-29T11:44:17.466Z,100444.02
2022-10-29T11:46:48.258Z,100451.94
2022-10-29T11:49:43.125Z,100454.56
2022-10-29T11:52:15.638Z,100459.23
2022-10-29T11:55:18.573Z,100452.02
2022-10-29T11:57:59.265Z,100452.55
2022-10-29T12:00:35.021Z,100454.79
2022-10-29T12:03:40.029Z,100452.20
2022-10-29T12:06:57.184Z,100443.85
2022-10-29T12:10:06.935Z,100430.95
2022-10-29T12:13:02.865Z,100426.91
2022-10-29T12:15:48.837Z,100429.10
2022-10-29T12:18:47.095Z,100431.24
2022-10-29T12:21:24.046Z,100433.17
2022-10-29T12:24:15.778Z,100432.11
2022-10-29T12:26:55.665Z,100436.73
2022-10-29T12:29:34.444Z,100430.55
2022-10-29T12:32:49.343Z,100438.33
2022-10-29T12:35:30.555Z,100445.35
2022-10-29T12:38:21.354Z,100442.80
2022-10-29T12:40:57.448Z,100444.54
2022-10-29T12:43:33.850Z,100444.46
2022-10-29T12:46:19.509Z,100436.55
2022-10-29T12:49:11.997Z,100436.37
2022-10-29T12:52:24.537Z,100439.23
2022-10-29T12:54:55.462Z,100441.77
2022-10-29T12:57:37.753Z,100443.70
2022-10-29T13:00:27.710Z,100447.08
2022-10-29T13:02:57.825Z,100443.86
2022-10-29T13:10:24.085Z,100447.23
2022-10-29T13:12:56.338Z,100449.31
2022-10-29T13:15:28.795Z,100449.05
2022-10-29T13:18:07.916Z,100443.35
2022-10-29T13:20:42.377Z,100444.31
2022-10-29T13:23:25.530Z,100446.66
2022-10-29T13:25:55.836Z,100447.77
2022-10-29T13:28:25.162Z,100447.59
2022-10-29T13:31:14.582Z,100460.70
2022-10-29T13:33:44.746Z,100471.09
2022-10-29T13:36:17.692Z,100469.13
2022-10-29T13:39:04.759Z,100471.09
2022-10-29T13:41:43.656Z,100471.42
2022-10-29T13:44:24.948Z,100465.27
2022-10-29T13:47:04.105Z,100455.95
2022-10-29T13:49:47.996Z,100448.45
2022-10-29T13:52:24.663Z,100452.77
2022-10-29T13:55:05.623Z,100458.60
2022-10-29T13:58:12.837Z,100462.21
2022-10-29T14:00:44.881Z,100466.39
2022-10-29T14:03:29.998Z,100472.48
2022-10-29T14:10:35.583Z,100463.66
2022-10-29T14:13:23.633Z,100470.68
2022-10-29T14:16:06.324Z,100464.83
2022-10-29T14:18:49.571Z,100460.72
2022-10-29T14:21:27.770Z,100461.36
2022-10-29T14:24:02.501Z,100465.74
2022-10-29T14:26:33.930Z,100465.40
2022-10-29T14:29:24.629Z,100465.65
2022-10-29T14:32:19.194Z,100465.84
2022-10-29T14:34:51.235Z,100469.57
2022-10-29T14:37:33.197Z,100467.41
2022-10-29T14:40:20.184Z,100471.79
2022-10-29T14:42:55.917Z,100477.23
2022-10-29T14:45:33.751Z,100481.20
2022-10-29T14:48:11.002Z,100479.42
2022-10-29T14:50:48.871Z,100482.38
2022-10-29T14:53:33.497Z,100486.80
2022-10-29T14:56:12.516Z,100489.39
2022-10-29T14:58:43.729Z,100490.63
2022-10-29T15:01:16.727Z,100491.74
2022-10-29T15:03:49.322Z,100493.14
2022-10-29T15:06:45.089Z,100497.48
2022-10-29T15:09:20.955Z,100495.80
2022-10-29T15:12:09.195Z,100497.99
2022-10-29T15:14:53.702Z,100495.77
2022-10-29T15:17:28.312Z,100494.70
2022-10-29T15:20:00.561Z,100495.04
2022-10-29T15:22:42.363Z,100495.33
2022-10-29T15:25:24.816Z,100493.04
2022-10-29T15:27:56.597Z,100493.34
2022-10-29T15:30:38.946Z,100496.17
2022-10-29T15:33:18.193Z,100495.25
2022-10-29T15:35:53.792Z,100497.48
2022-10-29T15:38:35.090Z,100493.00
2022-10-29T15:41:08.854Z,100493.08
2022-10-29T15:44:04.856Z,100493.88
2022-10-29T15:46:49.242Z,100493.34
2022-10-29T15:49:20.197Z,100497.64
2022-10-29T15:51:52.483Z,100494.81
2022-10-29T15:54:23.820Z,100497.16
2022-10-29T15:56:53.939Z,100496.90
2022-10-29T15:59:26.327Z,100487.87
2022-10-29T16:01:57.246Z,100483.94
2022-10-29T16:04:31.604Z,100483.11
2022-10-29T16:07:00.625Z,100476.27
2022-10-29T16:09:31.427Z,100484.23
2022-10-29T16:12:01.147Z,100486.52
2022-10-29T16:14:30.447Z,100491.02
2022-10-29T16:16:59.981Z,100498.38
2022-10-29T16:19:32.141Z,100495.08
2022-10-29T16:22:02.142Z,100499.86
2022-10-29T16:24:34.552Z,100502.73
2022-10-29T16:27:14.453Z,100498.91
2022-10-29T16:29:47.515Z,100498.36
2022-10-29T16:32:20.270Z,100499.95
2022-10-29T16:34:51.636Z,100497.87
2022-10-29T16:37:21.886Z,100495.80
2022-10-29T16:39:51.731Z,100498.21
2022-10-29T16:42:35.335Z,100498.23
2022-10-29T16:45:09.044Z,100500.45
2022-10-29T16:47:38.267Z,100500.02
2022-10-29T16:50:07.954Z,100495.71
2022-10-29T16:52:37.823Z,100496.88
2022-10-29T16:55:11.573Z,100497.92
2022-10-29T16:57:42.115Z,100506.36
2022-10-29T17:00:13.826Z,100512.08
2022-10-29T17:02:46.463Z,100512.50
2022-10-29T17:05:16.865Z,100514.71
2022-10-29T17:07:46.906Z,100520.52
2022-10-29T17:10:17.304Z,100522.52
2022-10-29T17:12:49.435Z,100518.48
2022-10-29T17:15:20.642Z,100518.75
2022-10-29T17:17:49.944Z,100519.86
2022-10-29T17:20:23.413Z,100523.55
2022-10-29T17:22:54.011Z,100521.49
2022-10-29T17:25:25.174Z,100521.85
2022-10-29T17:27:55.255Z,100522.63
2022-10-29T17:30:25.476Z,100522.00
2022-10-29T17:32:57.683Z,100519.52
2022-10-29T17:35:28.816Z,100519.34
2022-10-29T17:37:58.054Z,100521.23
2022-10-29T17:40:28.186Z,100521.83
2022-10-29T17:42:59.603Z,100520.27
2022-10-29T17:45:34.139Z,100518.70
2022-10-29T17:48:04.897Z,100517.67
2022-10-29T17:50:37.394Z,100524.99
2022-10-29T17:53:07.057Z,100528.95
2022-10-29T17:55:38.108Z,100524.27
2022-10-29T17:58:15.447Z,100530.80
2022-10-29T18:00:49.058Z,100533.58
2022-10-29T18:03:19.250Z,100532.89
2022-10-29T18:06:17.035Z,100537.45
2022-10-29T18:08:47.778Z,100539.22
2022-10-29T18:11:20.674Z,100543.94
2022-10-29T18:13:54.007Z,100547.01
2022-10-29T18:16:27.231Z,100550.78
2022-10-29T18:19:03.041Z,100554.84
2022-10-29T18:21:35.069Z,100553.55
2022-10-29T18:24:06.623Z,100554.31
2022-10-29T18:26:37.183Z,100554.78
2022-10-29T18:29:09.847Z,100550.34
2022-10-29T18:31:42.983Z,100552.81
2022-10-29T18:34:16.207Z,100557.79
2022-10-29T18:36:47.939Z,100556.65
2022-10-29T18:39:18.388Z,100558.26
2022-10-29T18:41:50.788Z,100555.52
2022-10-29T18:44:21.007Z,100560.73
2022-10-29T18:46:51.781Z,100559.33
2022-10-29T18:49:21.005Z,100560.84
2022-10-29T18:51:57.181Z,100560.80
2022-10-29T18:54:28.517Z,100564.80
2022-10-29T18:56:58.610Z,100566.21
2022-10-29T18:59:29.703Z,100564.29
2022-10-29T19:01:59.816Z,100564.25
2022-10-29T19:04:32.279Z,100564.70
2022-10-29T19:07:04.119Z,100564.03
2022-10-29T19:09:35.863Z,100565.48
2022-10-29T19:12:08.059Z,100557.09
2022-10-29T19:14:41.433Z,100555.89
2022-10-29T19:17:11.378Z,100566.89
2022-10-29T19:19:45.043Z,100565.95
2022-10-29T19:22:15.319Z,100564.71
2022-10-29T19:24:44.579Z,100557.52
2022-10-29T19:27:19.160Z,100552.30
2022-10-29T19:29:49.748Z,100555.38
2022-10-29T19:32:20.139Z,100560.83
2022-10-29T19:34:49.853Z,100564.54
2022-10-29T19:37:19.529Z,100563.21
2022-10-29T19:39:55.330Z,100559.39
2022-10-29T19:42:24.769Z,100551.35
2022-10-29T19:44:56.401Z,100552.72
2022-10-29T19:47:26.137Z,100553.05
2022-10-29T19:49:55.632Z,100549.05
2022-10-29T19:52:27.168Z,100553.43
2022-10-29T19:55:03.519Z,100557.25
2022-10-29T19:57:35.414Z,100550.55
2022-10-29T20:00:05.389Z,100548.00
2022-10-29T20:02:35.278Z,100546.00
2022-10-29T20:05:35.955Z,100544.44
2022-10-29T20:08:08.947Z,100531.89
2022-10-29T20:10:41.413Z,100523.52
2022-10-29T20:13:13.401Z,100531.45
2022-10-29T20:15:43.341Z,100535.81
2022-10-29T20:18:15.021Z,100537.56
2022-10-29T20:20:46.797Z,100541.94
2022-10-29T20:23:19.968Z,100542.88
2022-10-29T20:25:51.292Z,100541.29
2022-10-29T20:28:24.270Z,100539.61
2022-10-29T20:31:13.975Z,100537.64
2022-10-29T20:33:59.483Z,100545.67
2022-10-29T20:36:49.099Z,100553.70
2022-10-29T20:39:30.784Z,100555.37
2022-10-29T20:42:03.618Z,100552.59
2022-10-29T20:44:34.099Z,100552.27
2022-10-29T20:47:04.866Z,100555.29
2022-10-29T20:49:35.960Z,100550.77
2022-10-29T20:52:07.458Z,100545.77
2022-10-29T20:54:36.679Z,100538.33
2022-10-29T20:57:05.571Z,100536.13
2022-10-29T20:59:37.155Z,100542.61
2022-10-29T21:02:07.593Z,100542.10
2022-10-29T21:04:37.969Z,100542.20
2022-10-29T21:07:08.381Z,100547.85
2022-10-29T21:09:45.577Z,100538.94
2022-10-29T21:12:17.091Z,100537.27
2022-10-29T21:14:47.376Z,100534.39
2022-10-29T21:17:28.155Z,100529.30
2022-10-29T21:20:00.405Z,100526.16
2022-10-29T21:22:29.616Z,100529.50
2022-10-29T21:25:00.460Z,100527.70
2022-10-29T21:27:29.994Z,100530.38
2022-10-29T21:30:02.208Z,100528.41
2022-10-29T21:32:34.318Z,100533.09
2022-10-29T21:35:07.957Z,100540.64
2022-10-29T21:37:37.688Z,100547.63
2022-10-29T21:40:09.186Z,100546.95
2022-10-29T21:42:41.644Z,100539.98
2022-10-29T21:45:11.146Z,100533.42
2022-10-29T21:47:41.778Z,100542.90
2022-10-29T21:50:11.881Z,100546.34
2022-10-29T21:52:42.077Z,100546.30
2022-10-29T21:55:11.082Z,100547.23
2022-10-29T21:57:45.934Z,100548.56
2022-10-29T22:00:16.929Z,100545.86
2022-10-29T22:02:49.444Z,100543.80
2022-10-29T22:09:51.427Z,100547.89
2022-10-29T22:15:09.932Z,100553.83
2022-10-29T22:17:40.109Z,100554.59
2022-10-29T22:20:11.398Z,100554.83
2022-10-29T22:29:26.578Z,100535.05
2022-10-29T22:31:56.408Z,100529.90
2022-10-29T22:34:28.413Z,100532.47
2022-10-29T22:36:58.639Z,100535.47
2022-10-29T22:39:29.890Z,100535.48
2022-10-29T22:42:00.272Z,100535.31
2022-10-29T22:44:32.101Z,100523.16
2022-10-29T22:47:01.868Z,100527.85
2022-10-29T22:49:33.983Z,100527.52
2022-10-29T22:52:03.670Z,100526.43
2022-10-29T22:54:35.571Z,100528.40
2022-10-29T22:57:04.543Z,100535.66
2022-10-29T22:59:36.613Z,100537.92
2022-10-29T23:02:06.142Z,100541.52
2022-10-29T23:04:37.010Z,100547.34
2022-10-29T23:07:07.184Z,100549.27
2022-10-29T23:09:35.934Z,100550.45
2022-10-29T23:12:07.334Z,100532.52
2022-10-29T23:14:36.504Z,100524.53
2022-10-29T23:17:09.223Z,100518.55
2022-10-29T23:19:38.363Z,100516.40
2022-10-29T23:22:08.882Z,100512.77
2022-10-29T23:24:38.964Z,100518.25
2022-10-29T23:27:09.361Z,100514.95
2022-10-29T23:29:38.806Z,100514.24
2022-10-29T23:32:11.314Z,100518.60
2022-10-29T23:34:40.615Z,100525.17
2022-10-29T23:37:11.810Z,100522.40
2022-10-29T23:39:41.129Z,100509.63
2022-10-29T23:42:10.735Z,100510.19
2022-10-29T23:44:41.055Z,100510.58
2022-10-29T23:47:09.985Z,100516.44
2022-10-29T23:49:41.705Z,100520.98
2022-10-29T23:52:12.005Z,100516.77
2022-10-29T23:54:41.394Z,100519.01
2022-10-29T23:57:10.644Z,100520.77
2022-10-29T23:59:45.046Z,100527.15
